Agios Georgios I — SX9857 — position and weather

sailwx.info

Track history (hours):
 
Tides and Currents Weather Stations Pressure Air Temp Water Temp Dewpoint Dewpoint Depression Visibility Wind Speed Wind Dir Waves Ship Positions

Agios Georgios I

Last reported at 2016-May-01 20:18 UTC. Time now 2016-May-01 21:12 UTC.
Position N 37°26' E 024°56'.

Length 59 m; draft 5 m.

Type: Ship (hazmat cat B). MMSI: 239912000.

Date/timePositionNaut miles runAvg speedWind from/ knotsBaromVisibWave heightAir tempDewpointWater temp
2016-May-01 20:18N 37°26' E 024°56'0 0.0
2016-May-01 19:30N 37°26' E 024°56'0 0.0
2016-May-01 18:33N 37°26' E 024°56'0 0.0
2016-May-01 17:34N 37°26' E 024°56'0 0.0
2016-May-01 16:28N 37°26' E 024°56'0 0.0
2016-May-01 15:23N 37°26' E 024°56'0 0.0
2016-May-01 14:31N 37°26' E 024°56'0 0.0
2016-May-01 13:18N 37°26' E 024°56'0 0.0
2016-May-01 12:27N 37°26' E 024°56'0 0.0
2016-May-01 11:32N 37°26' E 024°56'0 0.0
2016-May-01 08:31N 37°26' E 024°56'0 0.0
2016-May-01 07:27N 37°26' E 024°56'0 0.0
2016-May-01 06:33N 37°26' E 024°56'0 0.0
2016-May-01 04:23N 37°26' E 024°56'0 0.0
2016-May-01 03:25N 37°26' E 024°56'0 0.0
2016-May-01 02:21N 37°26' E 024°56'0 0.0
2016-May-01 01:33N 37°26' E 024°56'0 0.0
2016-May-01 00:33N 37°26' E 024°56'0 0.0
2016-Apr-30 23:25N 37°26' E 024°56'0 0.0
2016-Apr-30 21:14N 37°26' E 024°56'0 0.0
2016-Apr-30 20:22N 37°26' E 024°56'0 0.0
2016-Apr-30 19:22N 37°26' E 024°56'0 0.0
2016-Apr-30 18:28N 37°26' E 024°56'0 0.0
2016-Apr-30 16:32N 37°26' E 024°56'2 2.3
2016-Apr-30 15:26N 37°27' E 024°59'7 8.5
2016-Apr-30 14:33N 37°29' E 025°08'9 8.5
2016-Apr-30 13:33N 37°32' E 025°18'7 7.1
2016-Apr-30 12:33N 37°33' E 025°27'7 7.3
2016-Apr-30 11:33N 37°35' E 025°36'17 7.8
2016-Apr-30 09:21N 37°39' E 025°57'7 8.6
2016-Apr-30 08:33N 37°41' E 026°05'  
2016-Apr-27 18:33N 37°59' E 024°41'9 8.8
2016-Apr-27 17:33N 37°53' E 024°33'9 8.8
2016-Apr-27 16:33N 37°48' E 024°24'25 8.3
2016-Apr-27 13:33N 37°38' E 023°55'9 8.5
2016-Apr-27 12:33N 37°39' E 023°45'8 8.0
2016-Apr-27 11:32N 37°46' E 023°39'8 8.6
2016-Apr-27 10:33N 37°54' E 023°36'4 3.6
2016-Apr-27 09:33N 37°57' E 023°35'0 0.0
2016-Apr-27 08:33N 37°57' E 023°35'0 0.0
2016-Apr-27 07:33N 37°57' E 023°35'0 0.0
2016-Apr-27 06:34N 37°57' E 023°35'0 0.0
2016-Apr-27 05:33N 37°57' E 023°35'0 0.0
2016-Apr-27 04:33N 37°57' E 023°35'0 0.0
2016-Apr-27 03:33N 37°57' E 023°35'0 0.0
2016-Apr-27 02:33N 37°57' E 023°35'0 0.0
2016-Apr-27 01:33N 37°57' E 023°35'0 0.0
2016-Apr-27 00:33N 37°57' E 023°35'0 0.0
2016-Apr-26 23:33N 37°57' E 023°35'0 0.0
2016-Apr-26 22:33N 37°57' E 023°35'0 0.0
2016-Apr-26 21:33N 37°57' E 023°35'0 0.0
2016-Apr-26 20:33N 37°57' E 023°35'0 0.0
2016-Apr-26 19:33N 37°57' E 023°35'1 0.6
2016-Apr-26 18:34N 37°57' E 023°35'7 7.5
2016-Apr-26 17:33N 37°50' E 023°39'8 8.0
2016-Apr-26 16:33N 37°43' E 023°44'8 8.2
2016-Apr-26 15:32N 37°38' E 023°53'55 7.9
2016-Apr-26 08:33N 37°30' E 025°01'7 7.2
2016-Apr-26 07:33N 37°29' E 025°10'7 7.4
2016-Apr-26 06:33N 37°28' E 025°19'0 0.2
2016-Apr-26 05:33N 37°28' E 025°20'0 0.0
2016-Apr-26 04:33N 37°28' E 025°20'6 6.1
2016-Apr-26 03:33N 37°27' E 025°12'9 8.3
2016-Apr-26 02:27N 37°26' E 025°00'3 1.5
2016-Apr-26 00:22N 37°26' E 024°56'0 0.0
2016-Apr-25 23:28N 37°26' E 024°56'0 0.0
2016-Apr-25 22:25N 37°26' E 024°56'0 0.0
2016-Apr-25 20:17N 37°26' E 024°56'0 0.0
2016-Apr-25 19:33N 37°26' E 024°56'0 0.0
2016-Apr-25 18:27N 37°26' E 024°56'0 0.0
2016-Apr-25 16:29N 37°26' E 024°56'0 0.0
2016-Apr-25 14:23N 37°26' E 024°56'0 0.0
2016-Apr-25 13:27N 37°26' E 024°56'0 0.0
2016-Apr-25 12:32N 37°26' E 024°56'0 0.0
2016-Apr-25 09:18N 37°26' E 024°56'0 0.0
2016-Apr-25 08:30N 37°26' E 024°56'0 0.0
2016-Apr-25 04:32N 37°26' E 024°56'0 0.0
2016-Apr-25 03:24N 37°26' E 024°56'0 0.0
2016-Apr-25 01:09N 37°26' E 024°56'0 0.0
2016-Apr-24 22:06N 37°26' E 024°56'0 0.0
2016-Apr-24 21:10N 37°26' E 024°56'0 0.0
2016-Apr-24 20:19N 37°26' E 024°56'0 0.0
2016-Apr-24 19:05N 37°26' E 024°56'0 0.0
2016-Apr-24 16:22N 37°26' E 024°56'0 0.0
2016-Apr-24 15:21N 37°26' E 024°56'0 0.0
2016-Apr-24 14:05N 37°26' E 024°56'0 0.0
2016-Apr-24 13:32N 37°26' E 024°56'0 0.0
2016-Apr-24 12:28N 37°26' E 024°56'0 0.0
2016-Apr-24 11:22N 37°26' E 024°56'0 0.0
2016-Apr-24 10:32N 37°26' E 024°56'0 0.0
2016-Apr-24 09:26N 37°26' E 024°56'0 0.0
2016-Apr-24 08:26N 37°26' E 024°56'0 0.0
2016-Apr-24 07:21N 37°26' E 024°56'0 0.0
2016-Apr-24 05:25N 37°26' E 024°56'0 0.0
2016-Apr-24 04:31N 37°26' E 024°56'0 0.0
2016-Apr-24 03:25N 37°26' E 024°56'0 0.0
2016-Apr-24 01:23N 37°26' E 024°56'0 0.0
2016-Apr-24 00:27N 37°26' E 024°56'0 0.0
2016-Apr-23 23:19N 37°26' E 024°56'0 0.0
2016-Apr-23 22:33N 37°26' E 024°56'0 0.0
2016-Apr-23 21:31N 37°26' E 024°56'4 4.0
2016-Apr-23 20:32N 37°24' E 025°01'8 8.0
2016-Apr-23 19:29N 37°18' E 025°08'7 8.1
2016-Apr-23 18:33N 37°13' E 025°14'8 8.2
2016-Apr-23 17:33N 37°07' E 025°22'1 0.6
2016-Apr-23 16:33N 37°06' E 025°22'0 0.0
2016-Apr-23 15:33N 37°06' E 025°22'1 0.5
2016-Apr-23 14:33N 37°06' E 025°22'1 0.5
2016-Apr-23 13:33N 37°06' E 025°22'0 0.3
2016-Apr-23 12:33N 37°06' E 025°22'0 0.3
2016-Apr-23 11:34N 37°06' E 025°22'0 0.1
2016-Apr-23 10:33N 37°06' E 025°22'5 5.3
2016-Apr-23 09:33N 37°10' E 025°17'8 7.8
2016-Apr-23 08:33N 37°07' E 025°08'2 1.0
2016-Apr-23 06:33N 37°05' E 025°09'0 0.0
2016-Apr-23 05:32N 37°05' E 025°09'3 2.8
2016-Apr-23 04:32N 37°08' E 025°07'9 8.8
2016-Apr-23 03:33N 37°16' E 025°08'8 8.1
2016-Apr-23 02:33N 37°24' E 025°08'8 7.9
2016-Apr-23 01:33N 37°32' E 025°09'0 0.0
2016-Apr-23 00:33N 37°32' E 025°09'0 0.0
2016-Apr-22 23:33N 37°32' E 025°09'0 0.0
2016-Apr-22 22:33N 37°32' E 025°09'0 0.0
2016-Apr-22 21:33N 37°32' E 025°09'0 0.0
2016-Apr-22 20:33N 37°32' E 025°09'0 0.0
2016-Apr-22 19:33N 37°32' E 025°09'0 0.0
2016-Apr-22 18:33N 37°32' E 025°09'0 0.0
2016-Apr-22 17:33N 37°32' E 025°09'0 0.0
2016-Apr-22 16:33N 37°32' E 025°09'0 0.0
2016-Apr-22 15:33N 37°32' E 025°09'0 0.0
2016-Apr-22 14:33N 37°32' E 025°09'0 0.4
2016-Apr-22 13:31N 37°32' E 025°09'8 8.1
2016-Apr-22 12:33N 37°28' E 025°00'4 3.6
2016-Apr-22 11:29N 37°26' E 024°56'0 0.0
2016-Apr-22 10:28N 37°26' E 024°56'0 0.0
2016-Apr-22 09:30N 37°26' E 024°56'0 0.0
2016-Apr-22 08:30N 37°26' E 024°56'0 0.0
2016-Apr-22 07:24N 37°26' E 024°56'0 0.4
2016-Apr-22 06:27N 37°26' E 024°57'21 7.2
2016-Apr-22 03:33N 37°45' E 024°46'8 8.1
2016-Apr-22 02:32N 37°53' E 024°41'8 8.1
2016-Apr-22 01:32N 38°01' E 024°40'  
Track history (hours):
 
Tides and Currents Weather Stations Pressure Air Temp Water Temp Dewpoint Dewpoint Depression Visibility Wind Speed Wind Dir Waves Ship Positions

Agios Georgios I

Last reported at 2016-May-01 20:18 UTC. Time now 2016-May-01 21:12 UTC.
Position N 37°26' E 024°56'.

Length 59 m; draft 5 m.

Type: Ship (hazmat cat B). MMSI: 239912000.

Date/timePositionNaut miles runAvg speedWind from/ knotsBaromVisibWave heightAir tempDewpointWater temp
2016-May-01 20:18N 37°26' E 024°56'0 0.0
2016-May-01 19:30N 37°26' E 024°56'0 0.0
2016-May-01 18:33N 37°26' E 024°56'0 0.0
2016-May-01 17:34N 37°26' E 024°56'0 0.0
2016-May-01 16:28N 37°26' E 024°56'0 0.0
2016-May-01 15:23N 37°26' E 024°56'0 0.0
2016-May-01 14:31N 37°26' E 024°56'0 0.0
2016-May-01 13:18N 37°26' E 024°56'0 0.0
2016-May-01 12:27N 37°26' E 024°56'0 0.0
2016-May-01 11:32N 37°26' E 024°56'0 0.0
2016-May-01 08:31N 37°26' E 024°56'0 0.0
2016-May-01 07:27N 37°26' E 024°56'0 0.0
2016-May-01 06:33N 37°26' E 024°56'0 0.0
2016-May-01 04:23N 37°26' E 024°56'0 0.0
2016-May-01 03:25N 37°26' E 024°56'0 0.0
2016-May-01 02:21N 37°26' E 024°56'0 0.0
2016-May-01 01:33N 37°26' E 024°56'0 0.0
2016-May-01 00:33N 37°26' E 024°56'0 0.0
2016-Apr-30 23:25N 37°26' E 024°56'0 0.0
2016-Apr-30 21:14N 37°26' E 024°56'0 0.0
2016-Apr-30 20:22N 37°26' E 024°56'0 0.0
2016-Apr-30 19:22N 37°26' E 024°56'0 0.0
2016-Apr-30 18:28N 37°26' E 024°56'0 0.0
2016-Apr-30 16:32N 37°26' E 024°56'2 2.3
2016-Apr-30 15:26N 37°27' E 024°59'7 8.5
2016-Apr-30 14:33N 37°29' E 025°08'9 8.5
2016-Apr-30 13:33N 37°32' E 025°18'7 7.1
2016-Apr-30 12:33N 37°33' E 025°27'7 7.3
2016-Apr-30 11:33N 37°35' E 025°36'17 7.8
2016-Apr-30 09:21N 37°39' E 025°57'7 8.6
2016-Apr-30 08:33N 37°41' E 026°05'  
2016-Apr-27 18:33N 37°59' E 024°41'9 8.8
2016-Apr-27 17:33N 37°53' E 024°33'9 8.8
2016-Apr-27 16:33N 37°48' E 024°24'25 8.3
2016-Apr-27 13:33N 37°38' E 023°55'9 8.5
2016-Apr-27 12:33N 37°39' E 023°45'8 8.0
2016-Apr-27 11:32N 37°46' E 023°39'8 8.6
2016-Apr-27 10:33N 37°54' E 023°36'4 3.6
2016-Apr-27 09:33N 37°57' E 023°35'0 0.0
2016-Apr-27 08:33N 37°57' E 023°35'0 0.0
2016-Apr-27 07:33N 37°57' E 023°35'0 0.0
2016-Apr-27 06:34N 37°57' E 023°35'0 0.0
2016-Apr-27 05:33N 37°57' E 023°35'0 0.0
2016-Apr-27 04:33N 37°57' E 023°35'0 0.0
2016-Apr-27 03:33N 37°57' E 023°35'0 0.0
2016-Apr-27 02:33N 37°57' E 023°35'0 0.0
2016-Apr-27 01:33N 37°57' E 023°35'0 0.0
2016-Apr-27 00:33N 37°57' E 023°35'0 0.0
2016-Apr-26 23:33N 37°57' E 023°35'0 0.0
2016-Apr-26 22:33N 37°57' E 023°35'0 0.0
2016-Apr-26 21:33N 37°57' E 023°35'0 0.0
2016-Apr-26 20:33N 37°57' E 023°35'0 0.0
2016-Apr-26 19:33N 37°57' E 023°35'1 0.6
2016-Apr-26 18:34N 37°57' E 023°35'7 7.5
2016-Apr-26 17:33N 37°50' E 023°39'8 8.0
2016-Apr-26 16:33N 37°43' E 023°44'8 8.2
2016-Apr-26 15:32N 37°38' E 023°53'55 7.9
2016-Apr-26 08:33N 37°30' E 025°01'7 7.2
2016-Apr-26 07:33N 37°29' E 025°10'7 7.4
2016-Apr-26 06:33N 37°28' E 025°19'0 0.2
2016-Apr-26 05:33N 37°28' E 025°20'0 0.0
2016-Apr-26 04:33N 37°28' E 025°20'6 6.1
2016-Apr-26 03:33N 37°27' E 025°12'9 8.3
2016-Apr-26 02:27N 37°26' E 025°00'3 1.5
2016-Apr-26 00:22N 37°26' E 024°56'0 0.0
2016-Apr-25 23:28N 37°26' E 024°56'0 0.0
2016-Apr-25 22:25N 37°26' E 024°56'0 0.0
2016-Apr-25 20:17N 37°26' E 024°56'0 0.0
2016-Apr-25 19:33N 37°26' E 024°56'0 0.0
2016-Apr-25 18:27N 37°26' E 024°56'0 0.0
2016-Apr-25 16:29N 37°26' E 024°56'0 0.0
2016-Apr-25 14:23N 37°26' E 024°56'0 0.0
2016-Apr-25 13:27N 37°26' E 024°56'0 0.0
2016-Apr-25 12:32N 37°26' E 024°56'0 0.0
2016-Apr-25 09:18N 37°26' E 024°56'0 0.0
2016-Apr-25 08:30N 37°26' E 024°56'0 0.0
2016-Apr-25 04:32N 37°26' E 024°56'0 0.0
2016-Apr-25 03:24N 37°26' E 024°56'0 0.0
2016-Apr-25 01:09N 37°26' E 024°56'0 0.0
2016-Apr-24 22:06N 37°26' E 024°56'0 0.0
2016-Apr-24 21:10N 37°26' E 024°56'0 0.0
2016-Apr-24 20:19N 37°26' E 024°56'0 0.0
2016-Apr-24 19:05N 37°26' E 024°56'0 0.0
2016-Apr-24 16:22N 37°26' E 024°56'0 0.0
2016-Apr-24 15:21N 37°26' E 024°56'0 0.0
2016-Apr-24 14:05N 37°26' E 024°56'0 0.0
2016-Apr-24 13:32N 37°26' E 024°56'0 0.0
2016-Apr-24 12:28N 37°26' E 024°56'0 0.0
2016-Apr-24 11:22N 37°26' E 024°56'0 0.0
2016-Apr-24 10:32N 37°26' E 024°56'0 0.0
2016-Apr-24 09:26N 37°26' E 024°56'0 0.0
2016-Apr-24 08:26N 37°26' E 024°56'0 0.0
2016-Apr-24 07:21N 37°26' E 024°56'0 0.0
2016-Apr-24 05:25N 37°26' E 024°56'0 0.0
2016-Apr-24 04:31N 37°26' E 024°56'0 0.0
2016-Apr-24 03:25N 37°26' E 024°56'0 0.0
2016-Apr-24 01:23N 37°26' E 024°56'0 0.0
2016-Apr-24 00:27N 37°26' E 024°56'0 0.0
2016-Apr-23 23:19N 37°26' E 024°56'0 0.0
2016-Apr-23 22:33N 37°26' E 024°56'0 0.0
2016-Apr-23 21:31N 37°26' E 024°56'4 4.0
2016-Apr-23 20:32N 37°24' E 025°01'8 8.0
2016-Apr-23 19:29N 37°18' E 025°08'7 8.1
2016-Apr-23 18:33N 37°13' E 025°14'8 8.2
2016-Apr-23 17:33N 37°07' E 025°22'1 0.6
2016-Apr-23 16:33N 37°06' E 025°22'0 0.0
2016-Apr-23 15:33N 37°06' E 025°22'1 0.5
2016-Apr-23 14:33N 37°06' E 025°22'1 0.5
2016-Apr-23 13:33N 37°06' E 025°22'0 0.3
2016-Apr-23 12:33N 37°06' E 025°22'0 0.3
2016-Apr-23 11:34N 37°06' E 025°22'0 0.1
2016-Apr-23 10:33N 37°06' E 025°22'5 5.3
2016-Apr-23 09:33N 37°10' E 025°17'8 7.8
2016-Apr-23 08:33N 37°07' E 025°08'2 1.0
2016-Apr-23 06:33N 37°05' E 025°09'0 0.0
2016-Apr-23 05:32N 37°05' E 025°09'3 2.8
2016-Apr-23 04:32N 37°08' E 025°07'9 8.8
2016-Apr-23 03:33N 37°16' E 025°08'8 8.1
2016-Apr-23 02:33N 37°24' E 025°08'8 7.9
2016-Apr-23 01:33N 37°32' E 025°09'0 0.0
2016-Apr-23 00:33N 37°32' E 025°09'0 0.0
2016-Apr-22 23:33N 37°32' E 025°09'0 0.0
2016-Apr-22 22:33N 37°32' E 025°09'0 0.0
2016-Apr-22 21:33N 37°32' E 025°09'0 0.0
2016-Apr-22 20:33N 37°32' E 025°09'0 0.0
2016-Apr-22 19:33N 37°32' E 025°09'0 0.0
2016-Apr-22 18:33N 37°32' E 025°09'0 0.0
2016-Apr-22 17:33N 37°32' E 025°09'0 0.0
2016-Apr-22 16:33N 37°32' E 025°09'0 0.0
2016-Apr-22 15:33N 37°32' E 025°09'0 0.0
2016-Apr-22 14:33N 37°32' E 025°09'0 0.4
2016-Apr-22 13:31N 37°32' E 025°09'8 8.1
2016-Apr-22 12:33N 37°28' E 025°00'4 3.6
2016-Apr-22 11:29N 37°26' E 024°56'0 0.0
2016-Apr-22 10:28N 37°26' E 024°56'0 0.0
2016-Apr-22 09:30N 37°26' E 024°56'0 0.0
2016-Apr-22 08:30N 37°26' E 024°56'0 0.0
2016-Apr-22 07:24N 37°26' E 024°56'0 0.4
2016-Apr-22 06:27N 37°26' E 024°57'21 7.2
2016-Apr-22 03:33N 37°45' E 024°46'8 8.1
2016-Apr-22 02:32N 37°53' E 024°41'8 8.1
2016-Apr-22 01:32N 38°01' E 024°40'  

Dump ship's entire track history